Sopchoppy, Florida
Current Conditions -  °F | °C
As of 12:53 PM on Saturday 25 Oct 2014 (Local Time) from KTLH Reporting Station
Clear Clear  
Wind Chill: 77°   Ceiling: Unl
Heat Index: 78°   Visibility: 10mi
Dew Point: 42°   Wind: 7mph
Humidity: 29%   Direction: NA
Pressure: 30.03"   Gusts: NA
Location:  30.06°N, 84.49°W
Report Text: KTLH 251653Z VRB06KT 10SM CLR 25/06 A3003 RMK AO2 SLP169 T02500056 $
Loading
Personal Weather Stations






























Interactive Weather Map
Tropical Storm Tracking
New forecast layout! Learn more

10-Day Weather Forecast

Advertisements
Track Severe Weather on mobile